sensor_id;sensor_type;location;lat;lon;timestamp;temperature;humidity
19168;DHT22;9716;53.114;18.040;2022-07-26T00:00:42;23.50;84.30
19168;DHT22;9716;53.114;18.040;2022-07-26T00:03:29;23.40;84.40
19168;DHT22;9716;53.114;18.040;2022-07-26T00:06:36;23.40;84.50
19168;DHT22;9716;53.114;18.040;2022-07-26T00:09:05;23.40;84.60
19168;DHT22;9716;53.114;18.040;2022-07-26T00:11:34;23.40;84.80
19168;DHT22;9716;53.114;18.040;2022-07-26T00:14:05;23.40;84.90
19168;DHT22;9716;53.114;18.040;2022-07-26T00:16:35;23.40;85.10
19168;DHT22;9716;53.114;18.040;2022-07-26T00:19:05;23.40;85.10
19168;DHT22;9716;53.114;18.040;2022-07-26T00:21:36;23.30;85.20
19168;DHT22;9716;53.114;18.040;2022-07-26T00:24:07;23.30;85.30
19168;DHT22;9716;53.114;18.040;2022-07-26T00:26:36;23.30;85.50
19168;DHT22;9716;53.114;18.040;2022-07-26T00:29:05;23.30;85.60
19168;DHT22;9716;53.114;18.040;2022-07-26T00:31:34;23.20;85.60
19168;DHT22;9716;53.114;18.040;2022-07-26T00:34:03;23.20;85.70
19168;DHT22;9716;53.114;18.040;2022-07-26T00:36:32;23.20;85.90
19168;DHT22;9716;53.114;18.040;2022-07-26T00:39:08;23.20;86.00
19168;DHT22;9716;53.114;18.040;2022-07-26T00:41:37;23.20;86.10
19168;DHT22;9716;53.114;18.040;2022-07-26T00:44:07;23.10;86.10
19168;DHT22;9716;53.114;18.040;2022-07-26T00:46:35;23.10;86.40
19168;DHT22;9716;53.114;18.040;2022-07-26T00:49:04;23.00;86.60
19168;DHT22;9716;53.114;18.040;2022-07-26T00:51:33;23.00;87.00
19168;DHT22;9716;53.114;18.040;2022-07-26T00:54:03;23.00;87.40
19168;DHT22;9716;53.114;18.040;2022-07-26T00:56:34;22.90;87.70
19168;DHT22;9716;53.114;18.040;2022-07-26T00:59:02;22.80;87.80
19168;DHT22;9716;53.114;18.040;2022-07-26T01:01:32;22.80;88.00
19168;DHT22;9716;53.114;18.040;2022-07-26T01:04:01;22.80;88.20
19168;DHT22;9716;53.114;18.040;2022-07-26T01:06:29;22.70;88.30
19168;DHT22;9716;53.114;18.040;2022-07-26T01:08:58;22.70;88.50
19168;DHT22;9716;53.114;18.040;2022-07-26T01:11:27;22.70;88.70
19168;DHT22;9716;53.114;18.040;2022-07-26T01:13:57;22.70;88.80
19168;DHT22;9716;53.114;18.040;2022-07-26T01:16:26;22.60;88.80
19168;DHT22;9716;53.114;18.040;2022-07-26T01:18:55;22.70;89.20
19168;DHT22;9716;53.114;18.040;2022-07-26T01:21:28;22.60;89.30
19168;DHT22;9716;53.114;18.040;2022-07-26T01:23:57;22.70;89.80
19168;DHT22;9716;53.114;18.040;2022-07-26T01:26:26;22.70;89.90
19168;DHT22;9716;53.114;18.040;2022-07-26T01:28:55;22.80;90.00
19168;DHT22;9716;53.114;18.040;2022-07-26T01:31:24;22.80;90.00
19168;DHT22;9716;53.114;18.040;2022-07-26T01:33:53;22.90;90.00
19168;DHT22;9716;53.114;18.040;2022-07-26T01:36:22;23.00;90.00
19168;DHT22;9716;53.114;18.040;2022-07-26T01:38:52;23.10;90.00
19168;DHT22;9716;53.114;18.040;2022-07-26T01:41:21;23.20;89.90
19168;DHT22;9716;53.114;18.040;2022-07-26T01:44:05;23.20;89.80
19168;DHT22;9716;53.114;18.040;2022-07-26T01:46:35;23.30;89.70
19168;DHT22;9716;53.114;18.040;2022-07-26T01:49:04;23.40;89.70
19168;DHT22;9716;53.114;18.040;2022-07-26T01:51:33;23.40;89.50
19168;DHT22;9716;53.114;18.040;2022-07-26T01:54:04;23.50;89.40
19168;DHT22;9716;53.114;18.040;2022-07-26T01:56:33;23.50;89.20
19168;DHT22;9716;53.114;18.040;2022-07-26T01:59:03;23.50;89.00
19168;DHT22;9716;53.114;18.040;2022-07-26T02:01:31;23.60;89.10
19168;DHT22;9716;53.114;18.040;2022-07-26T02:04:06;23.60;88.90
19168;DHT22;9716;53.114;18.040;2022-07-26T02:06:55;23.60;88.90
19168;DHT22;9716;53.114;18.040;2022-07-26T02:09:25;23.60;88.80
19168;DHT22;9716;53.114;18.040;2022-07-26T02:12:00;23.60;88.70
19168;DHT22;9716;53.114;18.040;2022-07-26T02:14:29;23.60;88.70
19168;DHT22;9716;53.114;18.040;2022-07-26T02:16:58;23.70;88.70
19168;DHT22;9716;53.114;18.040;2022-07-26T02:19:27;23.60;88.60
19168;DHT22;9716;53.114;18.040;2022-07-26T02:21:57;23.60;88.80
19168;DHT22;9716;53.114;18.040;2022-07-26T02:24:27;23.50;88.70
19168;DHT22;9716;53.114;18.040;2022-07-26T02:26:56;23.50;88.90
19168;DHT22;9716;53.114;18.040;2022-07-26T02:29:25;23.50;89.10
19168;DHT22;9716;53.114;18.040;2022-07-26T02:31:55;23.50;89.30
19168;DHT22;9716;53.114;18.040;2022-07-26T02:34:24;23.40;89.40
19168;DHT22;9716;53.114;18.040;2022-07-26T02:36:57;23.40;89.60
19168;DHT22;9716;53.114;18.040;2022-07-26T02:39:27;23.30;89.70
19168;DHT22;9716;53.114;18.040;2022-07-26T02:41:57;23.30;90.00
19168;DHT22;9716;53.114;18.040;2022-07-26T02:44:27;23.30;90.00
19168;DHT22;9716;53.114;18.040;2022-07-26T02:46:56;23.20;90.00
19168;DHT22;9716;53.114;18.040;2022-07-26T02:49:25;23.20;90.10
19168;DHT22;9716;53.114;18.040;2022-07-26T02:51:53;23.20;90.20
19168;DHT22;9716;53.114;18.040;2022-07-26T02:54:22;23.20;90.30
19168;DHT22;9716;53.114;18.040;2022-07-26T02:56:52;23.20;90.30
19168;DHT22;9716;53.114;18.040;2022-07-26T02:59:20;23.20;90.30
19168;DHT22;9716;53.114;18.040;2022-07-26T03:01:49;23.20;90.40
19168;DHT22;9716;53.114;18.040;2022-07-26T03:04:18;23.20;90.40
19168;DHT22;9716;53.114;18.040;2022-07-26T03:06:47;23.20;90.50
19168;DHT22;9716;53.114;18.040;2022-07-26T03:09:15;23.20;90.50
19168;DHT22;9716;53.114;18.040;2022-07-26T03:11:44;23.20;90.50
19168;DHT22;9716;53.114;18.040;2022-07-26T03:14:14;23.20;90.50
19168;DHT22;9716;53.114;18.040;2022-07-26T03:16:43;23.20;90.60
19168;DHT22;9716;53.114;18.040;2022-07-26T03:19:11;23.10;90.50
19168;DHT22;9716;53.114;18.040;2022-07-26T03:21:40;23.20;90.90
19168;DHT22;9716;53.114;18.040;2022-07-26T03:24:08;23.10;90.70
19168;DHT22;9716;53.114;18.040;2022-07-26T03:26:37;23.10;90.60
19168;DHT22;9716;53.114;18.040;2022-07-26T03:29:06;23.20;90.70
19168;DHT22;9716;53.114;18.040;2022-07-26T03:31:36;23.10;90.70
19168;DHT22;9716;53.114;18.040;2022-07-26T03:34:05;23.20;90.80
19168;DHT22;9716;53.114;18.040;2022-07-26T03:36:35;23.20;90.70
19168;DHT22;9716;53.114;18.040;2022-07-26T03:39:03;23.20;90.70
19168;DHT22;9716;53.114;18.040;2022-07-26T03:41:32;23.20;90.70
19168;DHT22;9716;53.114;18.040;2022-07-26T03:44:01;23.20;90.70
19168;DHT22;9716;53.114;18.040;2022-07-26T03:46:29;23.20;90.70
19168;DHT22;9716;53.114;18.040;2022-07-26T03:49:00;23.30;90.70
19168;DHT22;9716;53.114;18.040;2022-07-26T03:51:29;23.20;90.60
19168;DHT22;9716;53.114;18.040;2022-07-26T03:54:00;23.30;90.50
19168;DHT22;9716;53.114;18.040;2022-07-26T03:56:28;23.30;90.90
19168;DHT22;9716;53.114;18.040;2022-07-26T03:58:59;23.30;90.50
19168;DHT22;9716;53.114;18.040;2022-07-26T04:01:29;23.30;90.50
19168;DHT22;9716;53.114;18.040;2022-07-26T04:03:58;23.40;90.50
19168;DHT22;9716;53.114;18.040;2022-07-26T04:06:28;23.40;90.60
19168;DHT22;9716;53.114;18.040;2022-07-26T04:08:57;23.30;90.60
19168;DHT22;9716;53.114;18.040;2022-07-26T04:11:41;23.40;90.70
19168;DHT22;9716;53.114;18.040;2022-07-26T04:14:10;23.40;90.70
19168;DHT22;9716;53.114;18.040;2022-07-26T04:16:39;23.40;90.80
19168;DHT22;9716;53.114;18.040;2022-07-26T04:19:10;23.50;90.90
19168;DHT22;9716;53.114;18.040;2022-07-26T04:21:40;23.50;90.90
19168;DHT22;9716;53.114;18.040;2022-07-26T04:24:08;23.50;91.00
19168;DHT22;9716;53.114;18.040;2022-07-26T04:26:38;23.60;91.10
19168;DHT22;9716;53.114;18.040;2022-07-26T04:29:07;23.60;91.20
19168;DHT22;9716;53.114;18.040;2022-07-26T04:31:37;23.70;91.40
19168;DHT22;9716;53.114;18.040;2022-07-26T04:34:06;23.60;91.50
19168;DHT22;9716;53.114;18.040;2022-07-26T04:36:36;23.60;91.90
19168;DHT22;9716;53.114;18.040;2022-07-26T04:39:06;23.60;92.70
19168;DHT22;9716;53.114;18.040;2022-07-26T04:41:34;23.50;93.30
19168;DHT22;9716;53.114;18.040;2022-07-26T04:44:04;23.40;93.70
19168;DHT22;9716;53.114;18.040;2022-07-26T04:46:33;23.30;94.10
19168;DHT22;9716;53.114;18.040;2022-07-26T04:49:02;23.20;94.40
19168;DHT22;9716;53.114;18.040;2022-07-26T04:51:30;23.20;94.70
19168;DHT22;9716;53.114;18.040;2022-07-26T04:53:59;23.10;95.20
19168;DHT22;9716;53.114;18.040;2022-07-26T04:56:29;23.00;95.60
19168;DHT22;9716;53.114;18.040;2022-07-26T04:58:58;23.00;96.30
19168;DHT22;9716;53.114;18.040;2022-07-26T05:01:26;23.00;96.30
19168;DHT22;9716;53.114;18.040;2022-07-26T05:03:55;23.00;96.50
19168;DHT22;9716;53.114;18.040;2022-07-26T05:06:24;22.90;96.70
19168;DHT22;9716;53.114;18.040;2022-07-26T05:08:53;22.90;96.90
19168;DHT22;9716;53.114;18.040;2022-07-26T05:11:21;22.80;97.10
19168;DHT22;9716;53.114;18.040;2022-07-26T05:13:51;22.80;97.40
19168;DHT22;9716;53.114;18.040;2022-07-26T05:16:20;22.80;98.00
19168;DHT22;9716;53.114;18.040;2022-07-26T05:18:48;22.70;98.20
19168;DHT22;9716;53.114;18.040;2022-07-26T05:21:17;22.60;98.90
19168;DHT22;9716;53.114;18.040;2022-07-26T05:23:46;22.50;99.40
19168;DHT22;9716;53.114;18.040;2022-07-26T05:26:15;22.50;99.90
19168;DHT22;9716;53.114;18.040;2022-07-26T05:28:44;22.40;99.90
19168;DHT22;9716;53.114;18.040;2022-07-26T05:31:14;22.40;99.90
19168;DHT22;9716;53.114;18.040;2022-07-26T05:33:43;22.40;99.90
19168;DHT22;9716;53.114;18.040;2022-07-26T05:36:12;22.40;99.90
19168;DHT22;9716;53.114;18.040;2022-07-26T05:38:40;22.40;99.90
19168;DHT22;9716;53.114;18.040;2022-07-26T05:41:09;22.30;99.90
19168;DHT22;9716;53.114;18.040;2022-07-26T05:43:38;22.30;99.90
19168;DHT22;9716;53.114;18.040;2022-07-26T05:46:09;22.40;99.90
19168;DHT22;9716;53.114;18.040;2022-07-26T05:48:39;22.40;99.90
19168;DHT22;9716;53.114;18.040;2022-07-26T05:51:08;22.40;99.90
19168;DHT22;9716;53.114;18.040;2022-07-26T05:53:37;22.50;99.90
19168;DHT22;9716;53.114;18.040;2022-07-26T05:56:06;22.50;99.90
19168;DHT22;9716;53.114;18.040;2022-07-26T05:58:35;22.50;99.90
19168;DHT22;9716;53.114;18.040;2022-07-26T06:01:04;22.50;99.90
19168;DHT22;9716;53.114;18.040;2022-07-26T06:03:33;22.50;99.90
19168;DHT22;9716;53.114;18.040;2022-07-26T06:06:03;22.50;99.90
19168;DHT22;9716;53.114;18.040;2022-07-26T06:08:32;22.50;99.90
19168;DHT22;9716;53.114;18.040;2022-07-26T06:11:01;22.50;99.90
19168;DHT22;9716;53.114;18.040;2022-07-26T06:13:30;22.40;99.90
19168;DHT22;9716;53.114;18.040;2022-07-26T06:15:59;22.40;99.90
19168;DHT22;9716;53.114;18.040;2022-07-26T06:18:28;22.40;99.90
19168;DHT22;9716;53.114;18.040;2022-07-26T06:20:57;22.40;99.90
19168;DHT22;9716;53.114;18.040;2022-07-26T06:23:30;22.40;99.90
19168;DHT22;9716;53.114;18.040;2022-07-26T06:26:02;22.30;99.90
19168;DHT22;9716;53.114;18.040;2022-07-26T06:28:31;22.20;99.90
19168;DHT22;9716;53.114;18.040;2022-07-26T06:31:00;22.20;99.90
19168;DHT22;9716;53.114;18.040;2022-07-26T06:33:29;22.10;99.90
19168;DHT22;9716;53.114;18.040;2022-07-26T06:35:58;22.10;99.90
19168;DHT22;9716;53.114;18.040;2022-07-26T06:38:27;22.00;99.90
19168;DHT22;9716;53.114;18.040;2022-07-26T06:40:57;22.00;99.90
19168;DHT22;9716;53.114;18.040;2022-07-26T06:43:26;21.90;99.90
19168;DHT22;9716;53.114;18.040;2022-07-26T06:45:54;21.90;99.90
19168;DHT22;9716;53.114;18.040;2022-07-26T06:48:23;21.80;99.90
19168;DHT22;9716;53.114;18.040;2022-07-26T06:50:52;21.80;99.90
19168;DHT22;9716;53.114;18.040;2022-07-26T06:53:20;21.70;99.90
19168;DHT22;9716;53.114;18.040;2022-07-26T06:55:49;21.60;99.90
19168;DHT22;9716;53.114;18.040;2022-07-26T06:58:19;21.60;99.90
19168;DHT22;9716;53.114;18.040;2022-07-26T07:00:48;21.50;99.90
19168;DHT22;9716;53.114;18.040;2022-07-26T07:03:17;21.50;99.90
19168;DHT22;9716;53.114;18.040;2022-07-26T07:05:45;21.40;99.90
19168;DHT22;9716;53.114;18.040;2022-07-26T07:08:17;21.30;99.90
19168;DHT22;9716;53.114;18.040;2022-07-26T07:10:49;21.20;99.90
19168;DHT22;9716;53.114;18.040;2022-07-26T07:13:22;21.10;99.90
19168;DHT22;9716;53.114;18.040;2022-07-26T07:15:50;21.00;99.90
19168;DHT22;9716;53.114;18.040;2022-07-26T07:18:20;21.10;99.90
19168;DHT22;9716;53.114;18.040;2022-07-26T07:20:49;21.10;99.90
19168;DHT22;9716;53.114;18.040;2022-07-26T07:23:17;21.00;99.90
19168;DHT22;9716;53.114;18.040;2022-07-26T07:25:48;21.00;99.90
19168;DHT22;9716;53.114;18.040;2022-07-26T07:28:17;21.00;99.90
19168;DHT22;9716;53.114;18.040;2022-07-26T07:30:47;21.00;99.90
19168;DHT22;9716;53.114;18.040;2022-07-26T07:33:17;21.00;99.90
19168;DHT22;9716;53.114;18.040;2022-07-26T07:35:50;21.00;99.90
19168;DHT22;9716;53.114;18.040;2022-07-26T07:38:20;21.10;99.90
19168;DHT22;9716;53.114;18.040;2022-07-26T07:40:49;21.20;99.90
19168;DHT22;9716;53.114;18.040;2022-07-26T07:43:18;21.30;99.90
19168;DHT22;9716;53.114;18.040;2022-07-26T07:45:48;21.30;99.90
19168;DHT22;9716;53.114;18.040;2022-07-26T07:48:17;21.40;99.90
19168;DHT22;9716;53.114;18.040;2022-07-26T07:50:45;21.60;99.90
19168;DHT22;9716;53.114;18.040;2022-07-26T07:53:14;21.70;99.90
19168;DHT22;9716;53.114;18.040;2022-07-26T07:55:46;21.90;99.90
19168;DHT22;9716;53.114;18.040;2022-07-26T07:58:15;22.10;99.90
19168;DHT22;9716;53.114;18.040;2022-07-26T08:00:45;22.20;99.90
19168;DHT22;9716;53.114;18.040;2022-07-26T08:03:17;22.40;99.90
19168;DHT22;9716;53.114;18.040;2022-07-26T08:05:46;22.60;99.90
19168;DHT22;9716;53.114;18.040;2022-07-26T08:08:17;22.70;99.90
19168;DHT22;9716;53.114;18.040;2022-07-26T08:10:50;22.80;99.90
19168;DHT22;9716;53.114;18.040;2022-07-26T08:13:20;22.90;99.90
19168;DHT22;9716;53.114;18.040;2022-07-26T08:15:49;23.00;99.90
19168;DHT22;9716;53.114;18.040;2022-07-26T08:18:20;23.20;99.90
19168;DHT22;9716;53.114;18.040;2022-07-26T08:20:52;23.40;99.90
19168;DHT22;9716;53.114;18.040;2022-07-26T08:23:21;23.60;99.90
19168;DHT22;9716;53.114;18.040;2022-07-26T08:25:50;23.90;99.90
19168;DHT22;9716;53.114;18.040;2022-07-26T08:28:27;24.20;99.90
19168;DHT22;9716;53.114;18.040;2022-07-26T08:31:13;24.40;99.90
19168;DHT22;9716;53.114;18.040;2022-07-26T08:33:43;24.80;99.90
19168;DHT22;9716;53.114;18.040;2022-07-26T08:36:13;25.00;99.90
19168;DHT22;9716;53.114;18.040;2022-07-26T08:38:42;25.10;99.90
19168;DHT22;9716;53.114;18.040;2022-07-26T08:41:15;25.20;99.90
19168;DHT22;9716;53.114;18.040;2022-07-26T08:43:44;25.40;99.90
19168;DHT22;9716;53.114;18.040;2022-07-26T08:46:21;25.60;99.90
19168;DHT22;9716;53.114;18.040;2022-07-26T08:48:55;25.90;99.90
19168;DHT22;9716;53.114;18.040;2022-07-26T08:51:25;26.20;99.90
19168;DHT22;9716;53.114;18.040;2022-07-26T08:53:55;26.40;99.90
19168;DHT22;9716;53.114;18.040;2022-07-26T08:56:33;26.60;99.90
19168;DHT22;9716;53.114;18.040;2022-07-26T08:59:11;26.70;99.90
19168;DHT22;9716;53.114;18.040;2022-07-26T09:01:50;26.70;99.90
19168;DHT22;9716;53.114;18.040;2022-07-26T09:04:22;26.80;99.90
19168;DHT22;9716;53.114;18.040;2022-07-26T09:07:04;27.00;99.90
19168;DHT22;9716;53.114;18.040;2022-07-26T09:09:34;27.20;99.90
19168;DHT22;9716;53.114;18.040;2022-07-26T09:12:15;27.30;99.90
19168;DHT22;9716;53.114;18.040;2022-07-26T09:14:45;27.40;99.90
19168;DHT22;9716;53.114;18.040;2022-07-26T09:17:15;27.50;99.90
19168;DHT22;9716;53.114;18.040;2022-07-26T09:20:04;27.50;99.90
19168;DHT22;9716;53.114;18.040;2022-07-26T09:22:34;27.60;99.90
19168;DHT22;9716;53.114;18.040;2022-07-26T09:25:04;27.70;99.90
19168;DHT22;9716;53.114;18.040;2022-07-26T09:27:46;27.70;99.90
19168;DHT22;9716;53.114;18.040;2022-07-26T09:30:15;27.70;99.90
19168;DHT22;9716;53.114;18.040;2022-07-26T09:32:59;27.70;99.90
19168;DHT22;9716;53.114;18.040;2022-07-26T09:35:32;27.90;99.90
19168;DHT22;9716;53.114;18.040;2022-07-26T09:38:18;27.90;99.90
19168;DHT22;9716;53.114;18.040;2022-07-26T09:40:47;27.90;99.90
19168;DHT22;9716;53.114;18.040;2022-07-26T09:43:18;27.80;99.90
19168;DHT22;9716;53.114;18.040;2022-07-26T09:46:04;27.80;99.90
19168;DHT22;9716;53.114;18.040;2022-07-26T09:48:33;27.80;99.90
19168;DHT22;9716;53.114;18.040;2022-07-26T09:51:37;27.70;99.90
19168;DHT22;9716;53.114;18.040;2022-07-26T09:54:06;27.70;99.90
19168;DHT22;9716;53.114;18.040;2022-07-26T09:56:43;27.70;99.90
19168;DHT22;9716;53.114;18.040;2022-07-26T09:59:14;27.60;99.90
19168;DHT22;9716;53.114;18.040;2022-07-26T10:01:44;27.60;99.90
19168;DHT22;9716;53.114;18.040;2022-07-26T10:04:13;27.50;99.90
19168;DHT22;9716;53.114;18.040;2022-07-26T10:06:43;27.50;99.50
19168;DHT22;9716;53.114;18.040;2022-07-26T10:09:13;27.60;99.10
19168;DHT22;9716;53.114;18.040;2022-07-26T10:11:46;27.60;99.40
19168;DHT22;9716;53.114;18.040;2022-07-26T10:14:40;27.70;99.10
19168;DHT22;9716;53.114;18.040;2022-07-26T10:17:45;27.90;98.30
19168;DHT22;9716;53.114;18.040;2022-07-26T10:20:44;28.20;98.10
19168;DHT22;9716;53.114;18.040;2022-07-26T10:23:47;28.40;96.90
19168;DHT22;9716;53.114;18.040;2022-07-26T10:26:39;28.60;96.40
19168;DHT22;9716;53.114;18.040;2022-07-26T10:29:23;28.80;95.50
19168;DHT22;9716;53.114;18.040;2022-07-26T10:32:15;28.90;95.00
19168;DHT22;9716;53.114;18.040;2022-07-26T10:34:46;28.90;94.40
19168;DHT22;9716;53.114;18.040;2022-07-26T10:37:22;28.80;93.80
19168;DHT22;9716;53.114;18.040;2022-07-26T10:40:16;28.70;93.50
19168;DHT22;9716;53.114;18.040;2022-07-26T10:42:46;28.70;93.30
19168;DHT22;9716;53.114;18.040;2022-07-26T10:45:21;28.70;93.50
19168;DHT22;9716;53.114;18.040;2022-07-26T10:48:14;28.80;93.30
19168;DHT22;9716;53.114;18.040;2022-07-26T10:50:48;28.90;93.00
19168;DHT22;9716;53.114;18.040;2022-07-26T10:53:18;29.00;93.00
19168;DHT22;9716;53.114;18.040;2022-07-26T10:55:50;29.10;92.20
19168;DHT22;9716;53.114;18.040;2022-07-26T10:58:19;29.10;91.50
19168;DHT22;9716;53.114;18.040;2022-07-26T11:00:56;29.00;91.30
19168;DHT22;9716;53.114;18.040;2022-07-26T11:03:35;29.10;91.60
19168;DHT22;9716;53.114;18.040;2022-07-26T11:06:10;29.10;91.60
19168;DHT22;9716;53.114;18.040;2022-07-26T11:08:39;29.20;91.40
19168;DHT22;9716;53.114;18.040;2022-07-26T11:11:27;29.30;90.50
19168;DHT22;9716;53.114;18.040;2022-07-26T11:14:06;29.30;89.00
19168;DHT22;9716;53.114;18.040;2022-07-26T11:16:37;29.10;89.00
19168;DHT22;9716;53.114;18.040;2022-07-26T11:19:14;29.10;89.00
19168;DHT22;9716;53.114;18.040;2022-07-26T11:21:43;29.00;88.70
19168;DHT22;9716;53.114;18.040;2022-07-26T11:24:12;29.00;88.70
19168;DHT22;9716;53.114;18.040;2022-07-26T11:26:43;28.90;89.10
19168;DHT22;9716;53.114;18.040;2022-07-26T11:29:13;28.80;88.60
19168;DHT22;9716;53.114;18.040;2022-07-26T11:31:48;28.80;87.80
19168;DHT22;9716;53.114;18.040;2022-07-26T11:34:30;28.80;87.40
19168;DHT22;9716;53.114;18.040;2022-07-26T11:37:01;28.70;87.00
19168;DHT22;9716;53.114;18.040;2022-07-26T11:39:32;28.60;86.60
19168;DHT22;9716;53.114;18.040;2022-07-26T11:42:05;28.50;86.70
19168;DHT22;9716;53.114;18.040;2022-07-26T11:44:35;28.40;86.70
19168;DHT22;9716;53.114;18.040;2022-07-26T11:47:10;28.30;86.60
19168;DHT22;9716;53.114;18.040;2022-07-26T11:49:40;28.30;87.70
19168;DHT22;9716;53.114;18.040;2022-07-26T11:52:29;28.30;87.60
19168;DHT22;9716;53.114;18.040;2022-07-26T11:54:59;28.10;87.60
19168;DHT22;9716;53.114;18.040;2022-07-26T11:57:30;27.90;88.20
19168;DHT22;9716;53.114;18.040;2022-07-26T11:59:59;27.80;88.60
19168;DHT22;9716;53.114;18.040;2022-07-26T12:02:28;27.90;88.90
19168;DHT22;9716;53.114;18.040;2022-07-26T12:05:15;27.90;89.30
19168;DHT22;9716;53.114;18.040;2022-07-26T12:07:56;27.80;89.90
19168;DHT22;9716;53.114;18.040;2022-07-26T12:10:25;27.90;89.70
19168;DHT22;9716;53.114;18.040;2022-07-26T12:13:10;27.90;89.30
19168;DHT22;9716;53.114;18.040;2022-07-26T12:15:49;27.80;89.30
19168;DHT22;9716;53.114;18.040;2022-07-26T12:18:24;27.80;89.40
19168;DHT22;9716;53.114;18.040;2022-07-26T12:21:00;27.90;90.10
19168;DHT22;9716;53.114;18.040;2022-07-26T12:23:41;28.00;90.00
19168;DHT22;9716;53.114;18.040;2022-07-26T12:26:20;28.10;89.20
19168;DHT22;9716;53.114;18.040;2022-07-26T12:28:50;28.10;88.80
19168;DHT22;9716;53.114;18.040;2022-07-26T12:31:24;28.10;88.70
19168;DHT22;9716;53.114;18.040;2022-07-26T12:33:53;28.00;88.60
19168;DHT22;9716;53.114;18.040;2022-07-26T12:36:23;27.90;88.40
19168;DHT22;9716;53.114;18.040;2022-07-26T12:38:56;27.80;89.10
19168;DHT22;9716;53.114;18.040;2022-07-26T12:41:32;27.70;90.10
19168;DHT22;9716;53.114;18.040;2022-07-26T12:44:03;27.60;90.10
19168;DHT22;9716;53.114;18.040;2022-07-26T12:46:32;27.60;90.00
19168;DHT22;9716;53.114;18.040;2022-07-26T12:49:03;27.60;89.80
19168;DHT22;9716;53.114;18.040;2022-07-26T12:51:32;27.70;89.10
19168;DHT22;9716;53.114;18.040;2022-07-26T12:54:01;27.70;90.00
19168;DHT22;9716;53.114;18.040;2022-07-26T12:56:33;27.80;90.20
19168;DHT22;9716;53.114;18.040;2022-07-26T12:59:03;28.00;89.90
19168;DHT22;9716;53.114;18.040;2022-07-26T13:01:32;28.10;88.10
19168;DHT22;9716;53.114;18.040;2022-07-26T13:04:01;28.30;88.10
19168;DHT22;9716;53.114;18.040;2022-07-26T13:06:29;28.50;88.30
19168;DHT22;9716;53.114;18.040;2022-07-26T13:08:59;28.60;88.10
19168;DHT22;9716;53.114;18.040;2022-07-26T13:11:28;28.70;88.20
19168;DHT22;9716;53.114;18.040;2022-07-26T13:13:57;28.90;87.70
19168;DHT22;9716;53.114;18.040;2022-07-26T13:16:27;29.10;86.30
19168;DHT22;9716;53.114;18.040;2022-07-26T13:18:56;29.20;85.60
19168;DHT22;9716;53.114;18.040;2022-07-26T13:21:24;29.20;84.50
19168;DHT22;9716;53.114;18.040;2022-07-26T13:24:00;29.10;84.30
19168;DHT22;9716;53.114;18.040;2022-07-26T13:26:29;29.00;84.60
19168;DHT22;9716;53.114;18.040;2022-07-26T13:28:57;28.70;85.20
19168;DHT22;9716;53.114;18.040;2022-07-26T13:31:28;28.50;86.10
19168;DHT22;9716;53.114;18.040;2022-07-26T13:33:56;28.20;87.40
19168;DHT22;9716;53.114;18.040;2022-07-26T13:36:25;28.00;88.60
19168;DHT22;9716;53.114;18.040;2022-07-26T13:38:54;27.80;90.20
19168;DHT22;9716;53.114;18.040;2022-07-26T13:41:23;27.80;89.50
19168;DHT22;9716;53.114;18.040;2022-07-26T13:43:52;27.80;88.90
19168;DHT22;9716;53.114;18.040;2022-07-26T13:46:22;27.70;89.80
19168;DHT22;9716;53.114;18.040;2022-07-26T13:49:02;27.70;90.10
19168;DHT22;9716;53.114;18.040;2022-07-26T13:51:33;27.90;89.10
19168;DHT22;9716;53.114;18.040;2022-07-26T13:54:21;28.10;88.40
19168;DHT22;9716;53.114;18.040;2022-07-26T13:56:50;28.30;88.30
19168;DHT22;9716;53.114;18.040;2022-07-26T13:59:19;28.60;87.20
19168;DHT22;9716;53.114;18.040;2022-07-26T14:01:48;29.00;86.60
19168;DHT22;9716;53.114;18.040;2022-07-26T14:04:19;29.30;85.90
19168;DHT22;9716;53.114;18.040;2022-07-26T14:06:47;29.70;84.90
19168;DHT22;9716;53.114;18.040;2022-07-26T14:09:17;29.90;83.40
19168;DHT22;9716;53.114;18.040;2022-07-26T14:11:46;30.10;82.40
19168;DHT22;9716;53.114;18.040;2022-07-26T14:14:15;30.30;82.00
19168;DHT22;9716;53.114;18.040;2022-07-26T14:16:44;30.60;81.30
19168;DHT22;9716;53.114;18.040;2022-07-26T14:19:16;30.70;80.30
19168;DHT22;9716;53.114;18.040;2022-07-26T14:21:46;30.90;80.70
19168;DHT22;9716;53.114;18.040;2022-07-26T14:24:27;31.00;79.10
19168;DHT22;9716;53.114;18.040;2022-07-26T14:26:56;31.10;78.70
19168;DHT22;9716;53.114;18.040;2022-07-26T14:29:28;31.10;78.50
19168;DHT22;9716;53.114;18.040;2022-07-26T14:31:57;30.90;78.40
19168;DHT22;9716;53.114;18.040;2022-07-26T14:34:25;30.70;78.80
19168;DHT22;9716;53.114;18.040;2022-07-26T14:36:56;30.50;79.20
19168;DHT22;9716;53.114;18.040;2022-07-26T14:39:25;30.30;80.30
19168;DHT22;9716;53.114;18.040;2022-07-26T14:41:53;30.20;79.70
19168;DHT22;9716;53.114;18.040;2022-07-26T14:44:22;30.30;79.90
19168;DHT22;9716;53.114;18.040;2022-07-26T14:46:53;30.20;79.10
19168;DHT22;9716;53.114;18.040;2022-07-26T14:49:22;30.20;79.20
19168;DHT22;9716;53.114;18.040;2022-07-26T14:51:55;30.00;79.30
19168;DHT22;9716;53.114;18.040;2022-07-26T14:54:24;30.00;79.60
19168;DHT22;9716;53.114;18.040;2022-07-26T14:56:53;30.00;79.70
19168;DHT22;9716;53.114;18.040;2022-07-26T14:59:22;30.00;79.30
19168;DHT22;9716;53.114;18.040;2022-07-26T15:01:51;29.80;78.80
19168;DHT22;9716;53.114;18.040;2022-07-26T15:04:19;29.70;79.00
19168;DHT22;9716;53.114;18.040;2022-07-26T15:06:48;29.70;79.10
19168;DHT22;9716;53.114;18.040;2022-07-26T15:09:18;29.70;78.80
19168;DHT22;9716;53.114;18.040;2022-07-26T15:11:47;29.60;78.70
19168;DHT22;9716;53.114;18.040;2022-07-26T15:14:16;29.70;79.00
19168;DHT22;9716;53.114;18.040;2022-07-26T15:16:45;29.70;79.00
19168;DHT22;9716;53.114;18.040;2022-07-26T15:19:13;29.80;78.90
19168;DHT22;9716;53.114;18.040;2022-07-26T15:21:42;29.80;78.90
19168;DHT22;9716;53.114;18.040;2022-07-26T15:24:11;29.90;78.90
19168;DHT22;9716;53.114;18.040;2022-07-26T15:26:42;29.90;78.80
19168;DHT22;9716;53.114;18.040;2022-07-26T15:29:13;29.70;78.80
19168;DHT22;9716;53.114;18.040;2022-07-26T15:31:41;29.60;79.20
19168;DHT22;9716;53.114;18.040;2022-07-26T15:34:10;29.50;78.80
19168;DHT22;9716;53.114;18.040;2022-07-26T15:36:40;29.40;79.00
19168;DHT22;9716;53.114;18.040;2022-07-26T15:39:09;29.30;80.10
19168;DHT22;9716;53.114;18.040;2022-07-26T15:41:46;29.30;79.50
19168;DHT22;9716;53.114;18.040;2022-07-26T15:44:17;29.30;79.60
19168;DHT22;9716;53.114;18.040;2022-07-26T15:46:50;29.30;79.60
19168;DHT22;9716;53.114;18.040;2022-07-26T15:49:19;29.20;79.60
19168;DHT22;9716;53.114;18.040;2022-07-26T15:51:47;29.10;79.80
19168;DHT22;9716;53.114;18.040;2022-07-26T15:54:18;29.00;79.90
19168;DHT22;9716;53.114;18.040;2022-07-26T15:56:48;28.90;80.10